sensor_id;sensor_type;location;lat;lon;timestamp;P1;durP1;ratioP1;P2;durP2;ratioP2
19358;SDS011;9815;52.334;20.890;2022-12-05T00:01:31;32.80;;;15.83;;
19358;SDS011;9815;52.334;20.890;2022-12-05T00:04:02;28.10;;;14.73;;
19358;SDS011;9815;52.334;20.890;2022-12-05T00:06:35;31.40;;;14.70;;
19358;SDS011;9815;52.334;20.890;2022-12-05T00:09:04;27.47;;;14.27;;
19358;SDS011;9815;52.334;20.890;2022-12-05T00:11:34;29.27;;;14.40;;
19358;SDS011;9815;52.334;20.890;2022-12-05T00:14:04;32.40;;;15.53;;
19358;SDS011;9815;52.334;20.890;2022-12-05T00:16:35;28.23;;;14.27;;
19358;SDS011;9815;52.334;20.890;2022-12-05T00:19:05;32.30;;;14.93;;
19358;SDS011;9815;52.334;20.890;2022-12-05T00:21:36;28.83;;;16.10;;
19358;SDS011;9815;52.334;20.890;2022-12-05T00:24:05;29.93;;;14.07;;
19358;SDS011;9815;52.334;20.890;2022-12-05T00:26:35;32.03;;;14.90;;
19358;SDS011;9815;52.334;20.890;2022-12-05T00:29:03;30.80;;;13.93;;
19358;SDS011;9815;52.334;20.890;2022-12-05T00:31:31;32.60;;;14.90;;
19358;SDS011;9815;52.334;20.890;2022-12-05T00:34:00;33.43;;;15.73;;
19358;SDS011;9815;52.334;20.890;2022-12-05T00:36:31;30.07;;;15.20;;
19358;SDS011;9815;52.334;20.890;2022-12-05T00:39:03;30.57;;;14.47;;
19358;SDS011;9815;52.334;20.890;2022-12-05T00:41:32;29.10;;;14.67;;
19358;SDS011;9815;52.334;20.890;2022-12-05T00:44:01;33.47;;;15.50;;
19358;SDS011;9815;52.334;20.890;2022-12-05T00:46:31;28.87;;;15.00;;
19358;SDS011;9815;52.334;20.890;2022-12-05T00:49:01;29.67;;;14.80;;
19358;SDS011;9815;52.334;20.890;2022-12-05T00:51:31;32.77;;;15.50;;
19358;SDS011;9815;52.334;20.890;2022-12-05T00:54:02;30.43;;;14.37;;
19358;SDS011;9815;52.334;20.890;2022-12-05T00:56:32;30.03;;;14.80;;
19358;SDS011;9815;52.334;20.890;2022-12-05T00:59:01;24.90;;;13.07;;
19358;SDS011;9815;52.334;20.890;2022-12-05T01:01:30;29.20;;;14.20;;
19358;SDS011;9815;52.334;20.890;2022-12-05T01:04:00;30.00;;;14.77;;
19358;SDS011;9815;52.334;20.890;2022-12-05T01:06:29;29.90;;;14.23;;
19358;SDS011;9815;52.334;20.890;2022-12-05T01:08:57;32.17;;;14.80;;
19358;SDS011;9815;52.334;20.890;2022-12-05T01:11:27;31.67;;;15.10;;
19358;SDS011;9815;52.334;20.890;2022-12-05T01:13:56;33.77;;;14.97;;
19358;SDS011;9815;52.334;20.890;2022-12-05T01:16:25;34.13;;;16.17;;
19358;SDS011;9815;52.334;20.890;2022-12-05T01:18:55;31.03;;;14.80;;
19358;SDS011;9815;52.334;20.890;2022-12-05T01:21:24;31.23;;;15.17;;
19358;SDS011;9815;52.334;20.890;2022-12-05T01:23:52;30.60;;;13.93;;
19358;SDS011;9815;52.334;20.890;2022-12-05T01:26:21;32.50;;;15.90;;
19358;SDS011;9815;52.334;20.890;2022-12-05T01:28:50;34.57;;;15.90;;
19358;SDS011;9815;52.334;20.890;2022-12-05T01:31:20;30.57;;;15.40;;
19358;SDS011;9815;52.334;20.890;2022-12-05T01:33:51;34.17;;;15.50;;
19358;SDS011;9815;52.334;20.890;2022-12-05T01:36:21;31.90;;;15.27;;
19358;SDS011;9815;52.334;20.890;2022-12-05T01:38:50;29.83;;;15.67;;
19358;SDS011;9815;52.334;20.890;2022-12-05T01:41:18;28.53;;;14.93;;
19358;SDS011;9815;52.334;20.890;2022-12-05T01:43:56;30.57;;;15.03;;
19358;SDS011;9815;52.334;20.890;2022-12-05T01:46:28;30.30;;;15.60;;
19358;SDS011;9815;52.334;20.890;2022-12-05T01:48:59;30.63;;;15.43;;
19358;SDS011;9815;52.334;20.890;2022-12-05T01:51:30;30.03;;;14.13;;
19358;SDS011;9815;52.334;20.890;2022-12-05T01:53:59;35.03;;;15.93;;
19358;SDS011;9815;52.334;20.890;2022-12-05T01:56:28;28.80;;;14.37;;
19358;SDS011;9815;52.334;20.890;2022-12-05T01:59:00;30.10;;;14.47;;
19358;SDS011;9815;52.334;20.890;2022-12-05T02:01:30;32.50;;;16.03;;
19358;SDS011;9815;52.334;20.890;2022-12-05T02:03:58;30.67;;;15.07;;
19358;SDS011;9815;52.334;20.890;2022-12-05T02:06:27;35.40;;;15.90;;
19358;SDS011;9815;52.334;20.890;2022-12-05T02:08:55;29.40;;;14.90;;
19358;SDS011;9815;52.334;20.890;2022-12-05T02:11:24;32.00;;;15.47;;
19358;SDS011;9815;52.334;20.890;2022-12-05T02:14:01;30.20;;;14.47;;
19358;SDS011;9815;52.334;20.890;2022-12-05T02:16:44;31.20;;;15.03;;
19358;SDS011;9815;52.334;20.890;2022-12-05T02:19:36;33.33;;;15.30;;
19358;SDS011;9815;52.334;20.890;2022-12-05T02:25:38;30.90;;;16.40;;
19358;SDS011;9815;52.334;20.890;2022-12-05T02:28:38;34.20;;;16.97;;
19358;SDS011;9815;52.334;20.890;2022-12-05T02:31:38;31.03;;;15.87;;
19358;SDS011;9815;52.334;20.890;2022-12-05T02:34:14;30.80;;;16.30;;
19358;SDS011;9815;52.334;20.890;2022-12-05T02:36:47;29.27;;;15.63;;
19358;SDS011;9815;52.334;20.890;2022-12-05T02:39:20;28.67;;;15.57;;
19358;SDS011;9815;52.334;20.890;2022-12-05T02:41:54;30.53;;;15.53;;
19358;SDS011;9815;52.334;20.890;2022-12-05T02:44:29;31.67;;;15.50;;
19358;SDS011;9815;52.334;20.890;2022-12-05T02:47:03;29.77;;;15.13;;
19358;SDS011;9815;52.334;20.890;2022-12-05T02:49:34;34.60;;;15.23;;
19358;SDS011;9815;52.334;20.890;2022-12-05T02:52:04;28.77;;;15.53;;
19358;SDS011;9815;52.334;20.890;2022-12-05T02:54:36;27.90;;;14.97;;
19358;SDS011;9815;52.334;20.890;2022-12-05T02:57:07;30.23;;;15.70;;
19358;SDS011;9815;52.334;20.890;2022-12-05T02:59:37;27.10;;;14.40;;
19358;SDS011;9815;52.334;20.890;2022-12-05T03:02:10;27.43;;;14.57;;
19358;SDS011;9815;52.334;20.890;2022-12-05T03:04:49;25.43;;;14.07;;
19358;SDS011;9815;52.334;20.890;2022-12-05T03:07:18;25.37;;;13.97;;
19358;SDS011;9815;52.334;20.890;2022-12-05T03:09:48;29.30;;;14.33;;
19358;SDS011;9815;52.334;20.890;2022-12-05T03:12:22;26.17;;;14.00;;
19358;SDS011;9815;52.334;20.890;2022-12-05T03:14:55;25.17;;;13.57;;
19358;SDS011;9815;52.334;20.890;2022-12-05T03:17:29;27.23;;;14.20;;
19358;SDS011;9815;52.334;20.890;2022-12-05T03:20:02;28.10;;;14.00;;
19358;SDS011;9815;52.334;20.890;2022-12-05T03:22:34;29.40;;;14.93;;
19358;SDS011;9815;52.334;20.890;2022-12-05T03:25:06;26.93;;;14.60;;
19358;SDS011;9815;52.334;20.890;2022-12-05T03:27:40;31.23;;;14.40;;
19358;SDS011;9815;52.334;20.890;2022-12-05T03:30:13;31.83;;;15.17;;
19358;SDS011;9815;52.334;20.890;2022-12-05T03:32:48;27.97;;;15.17;;
19358;SDS011;9815;52.334;20.890;2022-12-05T03:35:22;28.43;;;14.77;;
19358;SDS011;9815;52.334;20.890;2022-12-05T03:37:54;25.30;;;14.03;;
19358;SDS011;9815;52.334;20.890;2022-12-05T03:40:26;27.43;;;14.47;;
19358;SDS011;9815;52.334;20.890;2022-12-05T03:42:59;30.57;;;15.90;;
19358;SDS011;9815;52.334;20.890;2022-12-05T03:45:35;26.13;;;13.23;;
19358;SDS011;9815;52.334;20.890;2022-12-05T03:48:11;27.07;;;15.03;;
19358;SDS011;9815;52.334;20.890;2022-12-05T03:50:42;29.03;;;14.30;;
19358;SDS011;9815;52.334;20.890;2022-12-05T03:53:14;27.13;;;14.07;;
19358;SDS011;9815;52.334;20.890;2022-12-05T03:55:49;26.63;;;14.23;;
19358;SDS011;9815;52.334;20.890;2022-12-05T03:58:24;24.80;;;14.13;;
19358;SDS011;9815;52.334;20.890;2022-12-05T04:00:55;31.67;;;15.60;;
19358;SDS011;9815;52.334;20.890;2022-12-05T04:03:27;27.17;;;14.67;;
19358;SDS011;9815;52.334;20.890;2022-12-05T04:06:06;30.60;;;14.73;;
19358;SDS011;9815;52.334;20.890;2022-12-05T04:08:43;25.67;;;13.67;;
19358;SDS011;9815;52.334;20.890;2022-12-05T04:11:15;26.20;;;13.47;;
19358;SDS011;9815;52.334;20.890;2022-12-05T04:13:47;26.27;;;12.13;;
19358;SDS011;9815;52.334;20.890;2022-12-05T04:16:17;24.93;;;13.37;;
19358;SDS011;9815;52.334;20.890;2022-12-05T04:19:08;25.97;;;13.43;;
19358;SDS011;9815;52.334;20.890;2022-12-05T04:21:42;30.07;;;13.57;;
19358;SDS011;9815;52.334;20.890;2022-12-05T04:24:13;24.87;;;13.43;;
19358;SDS011;9815;52.334;20.890;2022-12-05T04:27:07;24.70;;;13.47;;
19358;SDS011;9815;52.334;20.890;2022-12-05T04:29:45;24.97;;;14.50;;
19358;SDS011;9815;52.334;20.890;2022-12-05T04:32:21;26.80;;;14.43;;
19358;SDS011;9815;52.334;20.890;2022-12-05T04:34:58;25.40;;;13.43;;
19358;SDS011;9815;52.334;20.890;2022-12-05T04:37:32;29.80;;;14.27;;
19358;SDS011;9815;52.334;20.890;2022-12-05T04:40:06;27.07;;;14.60;;
19358;SDS011;9815;52.334;20.890;2022-12-05T04:42:38;26.23;;;14.03;;
19358;SDS011;9815;52.334;20.890;2022-12-05T04:45:09;24.27;;;13.83;;
19358;SDS011;9815;52.334;20.890;2022-12-05T04:47:40;23.23;;;13.07;;
19358;SDS011;9815;52.334;20.890;2022-12-05T04:50:14;28.07;;;13.80;;
19358;SDS011;9815;52.334;20.890;2022-12-05T04:52:44;28.63;;;15.13;;
19358;SDS011;9815;52.334;20.890;2022-12-05T04:55:15;23.80;;;12.70;;
19358;SDS011;9815;52.334;20.890;2022-12-05T04:57:52;22.27;;;13.70;;
19358;SDS011;9815;52.334;20.890;2022-12-05T05:00:26;22.20;;;11.37;;
19358;SDS011;9815;52.334;20.890;2022-12-05T05:02:58;25.57;;;13.10;;
19358;SDS011;9815;52.334;20.890;2022-12-05T05:05:31;22.60;;;12.57;;
19358;SDS011;9815;52.334;20.890;2022-12-05T05:08:02;26.43;;;13.33;;
19358;SDS011;9815;52.334;20.890;2022-12-05T05:10:31;25.20;;;12.93;;
19358;SDS011;9815;52.334;20.890;2022-12-05T05:13:01;34.13;;;16.40;;
19358;SDS011;9815;52.334;20.890;2022-12-05T05:15:29;21.23;;;12.20;;
19358;SDS011;9815;52.334;20.890;2022-12-05T05:17:57;22.63;;;12.40;;
19358;SDS011;9815;52.334;20.890;2022-12-05T05:20:25;24.00;;;12.90;;
19358;SDS011;9815;52.334;20.890;2022-12-05T05:22:55;28.03;;;13.40;;
19358;SDS011;9815;52.334;20.890;2022-12-05T05:25:24;27.37;;;13.63;;
19358;SDS011;9815;52.334;20.890;2022-12-05T05:27:53;25.20;;;12.43;;
19358;SDS011;9815;52.334;20.890;2022-12-05T05:30:23;22.23;;;11.93;;
19358;SDS011;9815;52.334;20.890;2022-12-05T05:32:51;20.97;;;12.10;;
19358;SDS011;9815;52.334;20.890;2022-12-05T05:35:20;25.37;;;12.33;;
19358;SDS011;9815;52.334;20.890;2022-12-05T05:37:48;28.60;;;13.37;;
19358;SDS011;9815;52.334;20.890;2022-12-05T05:40:17;30.33;;;13.83;;
19358;SDS011;9815;52.334;20.890;2022-12-05T05:42:46;30.53;;;14.40;;
19358;SDS011;9815;52.334;20.890;2022-12-05T05:45:15;26.10;;;13.60;;
19358;SDS011;9815;52.334;20.890;2022-12-05T05:47:44;26.40;;;13.27;;
19358;SDS011;9815;52.334;20.890;2022-12-05T05:50:14;32.83;;;15.37;;
19358;SDS011;9815;52.334;20.890;2022-12-05T05:52:47;22.93;;;12.73;;
19358;SDS011;9815;52.334;20.890;2022-12-05T05:55:16;23.50;;;11.47;;
19358;SDS011;9815;52.334;20.890;2022-12-05T05:57:45;22.70;;;12.63;;
19358;SDS011;9815;52.334;20.890;2022-12-05T06:00:13;23.50;;;12.50;;
19358;SDS011;9815;52.334;20.890;2022-12-05T06:02:42;26.73;;;12.70;;
19358;SDS011;9815;52.334;20.890;2022-12-05T06:05:10;19.80;;;11.47;;
19358;SDS011;9815;52.334;20.890;2022-12-05T06:07:38;20.87;;;11.57;;
19358;SDS011;9815;52.334;20.890;2022-12-05T06:10:07;19.40;;;10.80;;
19358;SDS011;9815;52.334;20.890;2022-12-05T06:12:36;23.17;;;12.10;;
19358;SDS011;9815;52.334;20.890;2022-12-05T06:15:05;19.17;;;11.23;;
19358;SDS011;9815;52.334;20.890;2022-12-05T06:17:34;17.73;;;10.33;;
19358;SDS011;9815;52.334;20.890;2022-12-05T06:20:02;18.30;;;10.50;;
19358;SDS011;9815;52.334;20.890;2022-12-05T06:22:30;21.20;;;11.63;;
19358;SDS011;9815;52.334;20.890;2022-12-05T06:24:58;26.33;;;12.80;;
19358;SDS011;9815;52.334;20.890;2022-12-05T06:27:27;24.57;;;12.00;;
19358;SDS011;9815;52.334;20.890;2022-12-05T06:29:58;24.87;;;13.27;;
19358;SDS011;9815;52.334;20.890;2022-12-05T06:32:26;24.27;;;12.53;;
19358;SDS011;9815;52.334;20.890;2022-12-05T06:34:55;26.83;;;12.87;;
19358;SDS011;9815;52.334;20.890;2022-12-05T06:37:23;24.27;;;13.03;;
19358;SDS011;9815;52.334;20.890;2022-12-05T06:39:51;29.13;;;13.03;;
19358;SDS011;9815;52.334;20.890;2022-12-05T06:42:19;28.07;;;12.43;;
19358;SDS011;9815;52.334;20.890;2022-12-05T06:44:48;23.97;;;13.33;;
19358;SDS011;9815;52.334;20.890;2022-12-05T06:47:17;25.57;;;12.47;;
19358;SDS011;9815;52.334;20.890;2022-12-05T06:49:45;28.13;;;13.87;;
19358;SDS011;9815;52.334;20.890;2022-12-05T06:52:13;32.10;;;14.10;;
19358;SDS011;9815;52.334;20.890;2022-12-05T06:54:41;27.33;;;13.40;;
19358;SDS011;9815;52.334;20.890;2022-12-05T06:57:09;23.70;;;13.30;;
19358;SDS011;9815;52.334;20.890;2022-12-05T06:59:37;27.37;;;12.37;;
19358;SDS011;9815;52.334;20.890;2022-12-05T07:02:05;25.67;;;13.30;;
19358;SDS011;9815;52.334;20.890;2022-12-05T07:04:35;31.63;;;15.27;;
19358;SDS011;9815;52.334;20.890;2022-12-05T07:07:03;26.93;;;13.83;;
19358;SDS011;9815;52.334;20.890;2022-12-05T07:09:31;28.23;;;12.90;;
19358;SDS011;9815;52.334;20.890;2022-12-05T07:12:19;39.17;;;14.87;;
19358;SDS011;9815;52.334;20.890;2022-12-05T07:14:47;32.80;;;16.93;;
19358;SDS011;9815;52.334;20.890;2022-12-05T07:17:15;28.03;;;14.30;;
19358;SDS011;9815;52.334;20.890;2022-12-05T07:19:46;28.90;;;14.13;;
19358;SDS011;9815;52.334;20.890;2022-12-05T07:22:15;29.83;;;13.90;;
19358;SDS011;9815;52.334;20.890;2022-12-05T07:24:43;26.40;;;14.47;;
19358;SDS011;9815;52.334;20.890;2022-12-05T07:27:12;31.37;;;14.67;;
19358;SDS011;9815;52.334;20.890;2022-12-05T07:29:44;26.07;;;13.50;;
19358;SDS011;9815;52.334;20.890;2022-12-05T07:32:12;31.53;;;14.03;;
19358;SDS011;9815;52.334;20.890;2022-12-05T07:34:40;29.03;;;14.63;;
19358;SDS011;9815;52.334;20.890;2022-12-05T07:37:10;30.93;;;15.27;;
19358;SDS011;9815;52.334;20.890;2022-12-05T07:39:39;28.97;;;14.47;;
19358;SDS011;9815;52.334;20.890;2022-12-05T07:42:07;26.27;;;13.37;;
19358;SDS011;9815;52.334;20.890;2022-12-05T07:44:35;28.30;;;14.23;;
19358;SDS011;9815;52.334;20.890;2022-12-05T07:47:03;30.10;;;14.83;;
19358;SDS011;9815;52.334;20.890;2022-12-05T07:49:31;33.57;;;14.57;;
19358;SDS011;9815;52.334;20.890;2022-12-05T07:51:59;31.20;;;14.47;;
19358;SDS011;9815;52.334;20.890;2022-12-05T07:54:28;29.03;;;15.10;;
19358;SDS011;9815;52.334;20.890;2022-12-05T07:56:56;34.83;;;16.40;;
19358;SDS011;9815;52.334;20.890;2022-12-05T07:59:24;33.07;;;15.00;;
19358;SDS011;9815;52.334;20.890;2022-12-05T08:01:52;32.33;;;14.97;;
19358;SDS011;9815;52.334;20.890;2022-12-05T08:04:20;33.07;;;14.77;;
19358;SDS011;9815;52.334;20.890;2022-12-05T08:06:48;30.33;;;15.60;;
19358;SDS011;9815;52.334;20.890;2022-12-05T08:09:16;40.17;;;14.93;;
19358;SDS011;9815;52.334;20.890;2022-12-05T08:11:45;30.33;;;15.10;;
19358;SDS011;9815;52.334;20.890;2022-12-05T08:14:18;32.23;;;16.10;;
19358;SDS011;9815;52.334;20.890;2022-12-05T08:16:46;31.53;;;15.90;;
19358;SDS011;9815;52.334;20.890;2022-12-05T08:19:15;34.40;;;16.40;;
19358;SDS011;9815;52.334;20.890;2022-12-05T08:21:43;27.53;;;14.57;;
19358;SDS011;9815;52.334;20.890;2022-12-05T08:24:11;29.20;;;14.63;;
19358;SDS011;9815;52.334;20.890;2022-12-05T08:26:40;27.30;;;14.87;;
19358;SDS011;9815;52.334;20.890;2022-12-05T08:29:10;34.23;;;15.03;;
19358;SDS011;9815;52.334;20.890;2022-12-05T08:31:40;28.37;;;14.93;;
19358;SDS011;9815;52.334;20.890;2022-12-05T08:34:12;29.20;;;15.50;;
19358;SDS011;9815;52.334;20.890;2022-12-05T08:36:41;33.17;;;17.03;;
19358;SDS011;9815;52.334;20.890;2022-12-05T08:39:10;32.27;;;15.83;;
19358;SDS011;9815;52.334;20.890;2022-12-05T08:41:41;33.83;;;15.13;;
19358;SDS011;9815;52.334;20.890;2022-12-05T08:44:11;31.70;;;14.87;;
19358;SDS011;9815;52.334;20.890;2022-12-05T08:46:42;33.47;;;16.70;;
19358;SDS011;9815;52.334;20.890;2022-12-05T08:49:11;32.53;;;16.07;;
19358;SDS011;9815;52.334;20.890;2022-12-05T08:51:40;30.23;;;15.93;;
19358;SDS011;9815;52.334;20.890;2022-12-05T08:54:09;30.30;;;15.77;;
19358;SDS011;9815;52.334;20.890;2022-12-05T08:56:37;36.63;;;16.60;;
19358;SDS011;9815;52.334;20.890;2022-12-05T08:59:05;33.30;;;16.13;;
19358;SDS011;9815;52.334;20.890;2022-12-05T09:01:35;31.97;;;17.60;;
19358;SDS011;9815;52.334;20.890;2022-12-05T09:04:05;30.80;;;16.03;;
19358;SDS011;9815;52.334;20.890;2022-12-05T09:06:33;32.63;;;16.47;;
19358;SDS011;9815;52.334;20.890;2022-12-05T09:09:05;31.27;;;14.87;;
19358;SDS011;9815;52.334;20.890;2022-12-05T09:11:34;30.07;;;15.20;;
19358;SDS011;9815;52.334;20.890;2022-12-05T09:14:06;32.67;;;15.07;;
19358;SDS011;9815;52.334;20.890;2022-12-05T09:16:35;40.23;;;17.80;;
19358;SDS011;9815;52.334;20.890;2022-12-05T09:19:05;39.50;;;18.17;;
19358;SDS011;9815;52.334;20.890;2022-12-05T09:21:37;38.43;;;17.50;;
19358;SDS011;9815;52.334;20.890;2022-12-05T09:24:05;41.47;;;18.67;;
19358;SDS011;9815;52.334;20.890;2022-12-05T09:26:33;37.00;;;18.00;;
19358;SDS011;9815;52.334;20.890;2022-12-05T09:29:01;39.93;;;18.33;;
19358;SDS011;9815;52.334;20.890;2022-12-05T09:31:30;35.87;;;17.23;;
19358;SDS011;9815;52.334;20.890;2022-12-05T09:33:59;37.47;;;17.27;;
19358;SDS011;9815;52.334;20.890;2022-12-05T09:36:28;33.97;;;17.53;;
19358;SDS011;9815;52.334;20.890;2022-12-05T09:38:58;33.03;;;16.60;;
19358;SDS011;9815;52.334;20.890;2022-12-05T09:41:40;31.17;;;16.67;;
19358;SDS011;9815;52.334;20.890;2022-12-05T09:44:38;31.53;;;15.70;;
19358;SDS011;9815;52.334;20.890;2022-12-05T09:47:15;30.37;;;15.70;;
19358;SDS011;9815;52.334;20.890;2022-12-05T09:49:52;34.07;;;16.17;;
19358;SDS011;9815;52.334;20.890;2022-12-05T09:52:24;39.70;;;17.37;;
19358;SDS011;9815;52.334;20.890;2022-12-05T09:54:54;33.23;;;17.20;;
19358;SDS011;9815;52.334;20.890;2022-12-05T09:57:25;34.10;;;17.70;;
19358;SDS011;9815;52.334;20.890;2022-12-05T10:00:00;34.17;;;15.63;;
19358;SDS011;9815;52.334;20.890;2022-12-05T10:02:31;37.17;;;17.87;;
19358;SDS011;9815;52.334;20.890;2022-12-05T10:05:10;37.90;;;17.77;;
19358;SDS011;9815;52.334;20.890;2022-12-05T10:07:43;34.53;;;16.87;;
19358;SDS011;9815;52.334;20.890;2022-12-05T10:10:24;39.37;;;18.10;;
19358;SDS011;9815;52.334;20.890;2022-12-05T10:13:04;33.27;;;16.40;;
19358;SDS011;9815;52.334;20.890;2022-12-05T10:15:43;35.03;;;16.37;;
19358;SDS011;9815;52.334;20.890;2022-12-05T10:18:26;38.43;;;16.87;;
19358;SDS011;9815;52.334;20.890;2022-12-05T10:21:01;33.93;;;16.20;;
19358;SDS011;9815;52.334;20.890;2022-12-05T10:23:34;40.47;;;17.17;;
19358;SDS011;9815;52.334;20.890;2022-12-05T10:26:24;37.80;;;17.23;;
19358;SDS011;9815;52.334;20.890;2022-12-05T10:28:55;42.37;;;17.37;;
19358;SDS011;9815;52.334;20.890;2022-12-05T10:31:28;38.23;;;18.10;;
19358;SDS011;9815;52.334;20.890;2022-12-05T10:34:00;38.80;;;17.57;;
19358;SDS011;9815;52.334;20.890;2022-12-05T10:36:32;37.40;;;17.00;;
19358;SDS011;9815;52.334;20.890;2022-12-05T10:39:00;40.50;;;18.00;;
19358;SDS011;9815;52.334;20.890;2022-12-05T10:41:36;40.90;;;17.83;;
19358;SDS011;9815;52.334;20.890;2022-12-05T10:44:04;41.77;;;17.63;;
19358;SDS011;9815;52.334;20.890;2022-12-05T10:46:32;41.97;;;18.23;;
19358;SDS011;9815;52.334;20.890;2022-12-05T10:49:00;41.07;;;19.17;;
19358;SDS011;9815;52.334;20.890;2022-12-05T10:51:29;46.40;;;19.10;;
19358;SDS011;9815;52.334;20.890;2022-12-05T10:54:07;40.20;;;17.80;;
19358;SDS011;9815;52.334;20.890;2022-12-05T10:56:43;42.93;;;17.43;;
19358;SDS011;9815;52.334;20.890;2022-12-05T10:59:12;41.70;;;18.73;;
19358;SDS011;9815;52.334;20.890;2022-12-05T11:01:44;52.03;;;19.53;;
19358;SDS011;9815;52.334;20.890;2022-12-05T11:04:22;52.43;;;20.50;;
19358;SDS011;9815;52.334;20.890;2022-12-05T11:06:56;53.73;;;20.20;;
19358;SDS011;9815;52.334;20.890;2022-12-05T11:09:27;44.77;;;18.97;;
19358;SDS011;9815;52.334;20.890;2022-12-05T11:12:14;48.10;;;17.53;;
19358;SDS011;9815;52.334;20.890;2022-12-05T11:17:32;42.10;;;18.17;;
19358;SDS011;9815;52.334;20.890;2022-12-05T11:20:11;38.47;;;16.63;;
19358;SDS011;9815;52.334;20.890;2022-12-05T11:23:14;35.27;;;17.47;;
19358;SDS011;9815;52.334;20.890;2022-12-05T11:25:48;38.13;;;17.33;;
19358;SDS011;9815;52.334;20.890;2022-12-05T11:28:23;39.93;;;17.43;;
19358;SDS011;9815;52.334;20.890;2022-12-05T11:30:57;38.73;;;18.03;;
19358;SDS011;9815;52.334;20.890;2022-12-05T11:33:26;39.03;;;17.07;;
19358;SDS011;9815;52.334;20.890;2022-12-05T11:35:58;39.43;;;18.00;;
19358;SDS011;9815;52.334;20.890;2022-12-05T11:38:37;39.93;;;18.20;;
19358;SDS011;9815;52.334;20.890;2022-12-05T11:41:11;46.83;;;19.43;;
19358;SDS011;9815;52.334;20.890;2022-12-05T11:44:11;48.10;;;19.97;;
19358;SDS011;9815;52.334;20.890;2022-12-05T11:46:52;48.37;;;19.63;;
19358;SDS011;9815;52.334;20.890;2022-12-05T11:49:34;46.23;;;18.93;;
19358;SDS011;9815;52.334;20.890;2022-12-05T11:52:14;38.33;;;17.60;;
19358;SDS011;9815;52.334;20.890;2022-12-05T11:54:54;41.27;;;18.03;;
19358;SDS011;9815;52.334;20.890;2022-12-05T11:57:35;39.90;;;16.67;;
19358;SDS011;9815;52.334;20.890;2022-12-05T12:00:20;33.80;;;16.87;;
19358;SDS011;9815;52.334;20.890;2022-12-05T12:06:05;39.73;;;16.90;;
19358;SDS011;9815;52.334;20.890;2022-12-05T12:08:50;39.60;;;16.77;;
19358;SDS011;9815;52.334;20.890;2022-12-05T12:11:30;39.13;;;17.43;;
19358;SDS011;9815;52.334;20.890;2022-12-05T12:14:07;43.07;;;19.23;;
19358;SDS011;9815;52.334;20.890;2022-12-05T12:16:45;43.23;;;18.10;;
19358;SDS011;9815;52.334;20.890;2022-12-05T12:19:29;38.83;;;17.43;;
19358;SDS011;9815;52.334;20.890;2022-12-05T12:22:25;42.87;;;17.90;;
19358;SDS011;9815;52.334;20.890;2022-12-05T12:25:14;41.60;;;16.87;;
19358;SDS011;9815;52.334;20.890;2022-12-05T12:27:52;41.00;;;17.23;;
19358;SDS011;9815;52.334;20.890;2022-12-05T12:30:34;43.93;;;17.50;;
19358;SDS011;9815;52.334;20.890;2022-12-05T12:33:13;37.93;;;17.47;;
19358;SDS011;9815;52.334;20.890;2022-12-05T12:35:54;41.63;;;17.67;;
19358;SDS011;9815;52.334;20.890;2022-12-05T12:38:33;39.97;;;18.10;;
19358;SDS011;9815;52.334;20.890;2022-12-05T12:41:19;43.77;;;18.30;;
19358;SDS011;9815;52.334;20.890;2022-12-05T12:44:03;44.30;;;18.20;;
19358;SDS011;9815;52.334;20.890;2022-12-05T12:46:44;42.33;;;17.00;;
19358;SDS011;9815;52.334;20.890;2022-12-05T12:49:34;42.03;;;17.10;;
19358;SDS011;9815;52.334;20.890;2022-12-05T12:52:10;48.60;;;19.53;;
19358;SDS011;9815;52.334;20.890;2022-12-05T12:54:46;45.87;;;18.40;;
19358;SDS011;9815;52.334;20.890;2022-12-05T12:57:33;39.53;;;18.43;;
19358;SDS011;9815;52.334;20.890;2022-12-05T13:00:21;45.10;;;18.43;;
19358;SDS011;9815;52.334;20.890;2022-12-05T13:02:58;47.10;;;19.37;;
19358;SDS011;9815;52.334;20.890;2022-12-05T13:05:31;46.37;;;19.17;;
19358;SDS011;9815;52.334;20.890;2022-12-05T13:08:04;50.47;;;19.73;;
19358;SDS011;9815;52.334;20.890;2022-12-05T13:10:40;45.73;;;19.00;;
19358;SDS011;9815;52.334;20.890;2022-12-05T13:13:12;45.07;;;18.83;;
19358;SDS011;9815;52.334;20.890;2022-12-05T13:15:46;52.10;;;20.70;;
19358;SDS011;9815;52.334;20.890;2022-12-05T13:18:18;46.60;;;19.17;;
19358;SDS011;9815;52.334;20.890;2022-12-05T13:20:48;44.50;;;19.20;;
19358;SDS011;9815;52.334;20.890;2022-12-05T13:23:20;39.27;;;19.13;;
19358;SDS011;9815;52.334;20.890;2022-12-05T13:25:50;52.00;;;19.93;;
19358;SDS011;9815;52.334;20.890;2022-12-05T13:28:24;38.17;;;18.33;;
19358;SDS011;9815;52.334;20.890;2022-12-05T13:30:54;46.33;;;20.03;;
19358;SDS011;9815;52.334;20.890;2022-12-05T13:33:28;44.10;;;18.90;;
19358;SDS011;9815;52.334;20.890;2022-12-05T13:36:03;46.93;;;20.60;;
19358;SDS011;9815;52.334;20.890;2022-12-05T13:38:57;41.67;;;17.80;;
19358;SDS011;9815;52.334;20.890;2022-12-05T13:41:44;45.50;;;19.27;;
19358;SDS011;9815;52.334;20.890;2022-12-05T13:44:38;50.73;;;19.23;;
19358;SDS011;9815;52.334;20.890;2022-12-05T13:47:18;47.93;;;19.07;;
19358;SDS011;9815;52.334;20.890;2022-12-05T13:49:51;48.27;;;20.60;;
19358;SDS011;9815;52.334;20.890;2022-12-05T13:52:24;51.40;;;19.63;;
19358;SDS011;9815;52.334;20.890;2022-12-05T13:54:55;47.23;;;19.07;;
19358;SDS011;9815;52.334;20.890;2022-12-05T14:00:24;47.97;;;20.77;;
19358;SDS011;9815;52.334;20.890;2022-12-05T14:02:59;47.30;;;20.17;;
19358;SDS011;9815;52.334;20.890;2022-12-05T14:05:39;45.77;;;18.37;;
19358;SDS011;9815;52.334;20.890;2022-12-05T14:11:20;44.53;;;18.97;;
19358;SDS011;9815;52.334;20.890;2022-12-05T14:13:48;45.90;;;19.53;;
19358;SDS011;9815;52.334;20.890;2022-12-05T14:22:41;47.23;;;19.23;;
19358;SDS011;9815;52.334;20.890;2022-12-05T14:25:22;45.53;;;19.70;;
19358;SDS011;9815;52.334;20.890;2022-12-05T14:27:59;44.40;;;19.73;;
19358;SDS011;9815;52.334;20.890;2022-12-05T14:30:41;46.43;;;20.47;;
19358;SDS011;9815;52.334;20.890;2022-12-05T14:33:20;47.47;;;18.60;;
19358;SDS011;9815;52.334;20.890;2022-12-05T14:35:50;50.60;;;19.30;;
19358;SDS011;9815;52.334;20.890;2022-12-05T14:38:20;52.87;;;20.73;;
19358;SDS011;9815;52.334;20.890;2022-12-05T14:40:53;48.40;;;20.23;;
19358;SDS011;9815;52.334;20.890;2022-12-05T14:43:32;54.03;;;19.80;;
19358;SDS011;9815;52.334;20.890;2022-12-05T14:46:01;48.23;;;19.60;;
19358;SDS011;9815;52.334;20.890;2022-12-05T14:48:34;43.03;;;19.43;;
19358;SDS011;9815;52.334;20.890;2022-12-05T14:54:12;47.10;;;19.53;;
19358;SDS011;9815;52.334;20.890;2022-12-05T14:56:43;44.93;;;20.10;;
19358;SDS011;9815;52.334;20.890;2022-12-05T14:59:16;47.93;;;20.30;;
19358;SDS011;9815;52.334;20.890;2022-12-05T15:01:50;50.87;;;20.23;;
19358;SDS011;9815;52.334;20.890;2022-12-05T15:04:25;58.43;;;20.83;;
19358;SDS011;9815;52.334;20.890;2022-12-05T15:07:01;45.07;;;20.70;;
19358;SDS011;9815;52.334;20.890;2022-12-05T15:12:24;48.27;;;20.03;;
19358;SDS011;9815;52.334;20.890;2022-12-05T15:15:05;45.23;;;19.77;;
19358;SDS011;9815;52.334;20.890;2022-12-05T15:17:47;47.07;;;22.30;;
19358;SDS011;9815;52.334;20.890;2022-12-05T15:20:29;55.10;;;22.17;;
19358;SDS011;9815;52.334;20.890;2022-12-05T15:26:15;58.37;;;22.90;;